Time;durP1;ratioP1;P1;durP2;ratioP2;P2;SDS_P1;SDS_P2;PMS_P1;PMS_P2;Temp;Humidity;BMP_temperature;BMP_pressure;BME280_temperature;BME280_humidity;BME280_pressure;Samples;Min_cycle;Max_cycle;Signal;HPM_P1;HPM_P2
2024/02/26 00:00:28;;;;;;;9.10;7.60;;;7.70;99.90;;;;;;4975559;28;20617;-69
2024/02/26 00:03:21;;;;;;;9.90;7.17;;;7.20;99.90;;;;;;4976171;28;20459;-68
2024/02/26 00:05:49;;;;;;;12.53;7.33;;;7.10;99.90;;;;;;4971417;28;20459;-67
2024/02/26 00:08:15;;;;;;;13.57;8.37;;;6.90;99.90;;;;;;4975351;28;21034;-66
2024/02/26 00:10:42;;;;;;;13.50;7.53;;;7.30;99.90;;;;;;4975056;28;20546;-66
2024/02/26 00:13:09;;;;;;;11.27;7.93;;;6.90;99.90;;;;;;4975360;28;20813;-67
2024/02/26 00:15:38;;;;;;;12.07;8.53;;;7.10;99.90;;;;;;4975054;28;20802;-67
2024/02/26 00:18:05;;;;;;;12.93;7.23;;;7.00;99.90;;;;;;4974921;28;20538;-67
2024/02/26 00:20:32;;;;;;;9.43;7.30;;;7.00;99.90;;;;;;4974667;28;20566;-67
2024/02/26 00:22:58;;;;;;;9.87;7.60;;;6.90;99.90;;;;;;4974743;28;20536;-66
2024/02/26 00:25:26;;;;;;;10.53;7.03;;;7.00;99.90;;;;;;4974938;28;20447;-65
2024/02/26 00:27:53;;;;;;;13.73;7.10;;;6.90;99.90;;;;;;4974753;28;20447;-66
2024/02/26 00:30:20;;;;;;;10.17;7.40;;;6.90;99.90;;;;;;4974352;28;20467;-66
2024/02/26 00:32:48;;;;;;;8.13;6.23;;;6.80;99.90;;;;;;4975275;28;20471;-65
2024/02/26 00:35:20;;;;;;;12.70;7.13;;;6.80;99.90;;;;;;4974823;28;20447;-67
2024/02/26 00:37:47;;;;;;;9.07;6.47;;;6.80;99.90;;;;;;4974944;28;20445;-65
2024/02/26 00:40:14;;;;;;;11.63;7.93;;;6.70;99.90;;;;;;4974430;28;20471;-66
2024/02/26 00:42:45;;;;;;;9.53;7.00;;;6.70;99.90;;;;;;4974544;28;20444;-66
2024/02/26 00:45:12;;;;;;;10.83;6.50;;;6.60;99.90;;;;;;4974534;28;20486;-65
2024/02/26 00:47:40;;;;;;;9.57;6.73;;;6.50;99.90;;;;;;4974533;28;20541;-66
2024/02/26 00:50:09;;;;;;;7.40;5.90;;;6.50;99.90;;;;;;4974385;28;20473;-67
2024/02/26 00:52:36;;;;;;;10.00;5.83;;;6.50;99.90;;;;;;4974819;28;20530;-66
2024/02/26 00:55:04;;;;;;;11.17;6.27;;;6.60;99.90;;;;;;4974559;28;20538;-66
2024/02/26 00:57:31;;;;;;;6.67;5.63;;;6.40;99.90;;;;;;4974308;28;20527;-66
2024/02/26 00:59:58;;;;;;;12.13;6.63;;;6.40;99.90;;;;;;4973867;28;20476;-66
2024/02/26 01:02:26;;;;;;;12.17;6.33;;;6.20;99.90;;;;;;4974148;28;20458;-66
2024/02/26 01:04:53;;;;;;;16.63;6.60;;;6.40;99.90;;;;;;4974041;28;20551;-66
2024/02/26 01:07:21;;;;;;;10.63;6.63;;;6.30;99.90;;;;;;4974647;28;20534;-66
2024/02/26 01:09:48;;;;;;;10.13;5.23;;;6.30;99.90;;;;;;4974161;28;20546;-65
2024/02/26 01:12:15;;;;;;;9.20;5.80;;;6.30;99.90;;;;;;4974603;28;20443;-66
2024/02/26 01:14:42;;;;;;;6.87;5.30;;;6.30;99.90;;;;;;4974293;28;20451;-66
2024/02/26 01:17:09;;;;;;;9.23;6.33;;;6.20;99.90;;;;;;4974465;28;20510;-65
2024/02/26 01:19:36;;;;;;;7.43;5.90;;;6.30;99.90;;;;;;4974028;28;20571;-66
2024/02/26 01:22:03;;;;;;;7.03;6.33;;;6.30;99.90;;;;;;4974351;28;20455;-67
2024/02/26 01:24:33;;;;;;;12.40;5.70;;;6.10;99.90;;;;;;4974263;28;20519;-66
2024/02/26 01:27:00;;;;;;;6.97;5.50;;;6.10;99.90;;;;;;4974362;28;20479;-66
2024/02/26 01:29:27;;;;;;;11.77;6.60;;;6.10;99.90;;;;;;4974447;28;20547;-66
2024/02/26 01:31:54;;;;;;;12.67;5.60;;;6.10;99.90;;;;;;4974440;28;20502;-67
2024/02/26 01:34:23;;;;;;;9.30;5.43;;;6.20;99.90;;;;;;4974274;28;20456;-66
2024/02/26 01:36:50;;;;;;;10.67;6.60;;;6.10;99.90;;;;;;4974553;28;20549;-66
2024/02/26 01:39:17;;;;;;;10.07;6.83;;;6.00;99.90;;;;;;4973997;28;20478;-66
2024/02/26 01:41:45;;;;;;;13.20;6.73;;;5.90;99.90;;;;;;4974080;28;20461;-65
2024/02/26 01:44:13;;;;;;;9.83;6.00;;;6.40;99.90;;;;;;4974001;28;20581;-66
2024/02/26 01:46:41;;;;;;;11.60;6.93;;;6.10;99.90;;;;;;4973810;28;20450;-67
2024/02/26 01:49:09;;;;;;;9.53;7.37;;;6.10;99.90;;;;;;4973346;28;20546;-66
2024/02/26 01:51:37;;;;;;;8.23;5.50;;;6.20;99.90;;;;;;4972620;28;20467;-67
2024/02/26 01:54:05;;;;;;;11.43;6.90;;;6.10;99.90;;;;;;4973424;28;20526;-67
2024/02/26 01:56:32;;;;;;;7.27;5.53;;;6.10;99.90;;;;;;4973882;28;21072;-65
2024/02/26 01:59:01;;;;;;;8.63;5.20;;;6.10;99.90;;;;;;4973632;28;20489;-66
2024/02/26 02:01:29;;;;;;;8.30;6.13;;;6.10;99.90;;;;;;4973715;28;20490;-66
2024/02/26 02:03:57;;;;;;;11.20;7.77;;;6.10;99.90;;;;;;4973817;28;20566;-65
2024/02/26 02:06:24;;;;;;;10.47;5.90;;;6.10;99.90;;;;;;4973126;28;20528;-66
2024/02/26 02:08:51;;;;;;;8.80;5.70;;;6.10;99.90;;;;;;4973141;28;20447;-66
2024/02/26 02:11:18;;;;;;;11.70;7.50;;;6.10;99.90;;;;;;4973260;28;20535;-66
2024/02/26 02:13:45;;;;;;;9.63;5.37;;;6.10;99.90;;;;;;4973198;28;20966;-66
2024/02/26 02:16:13;;;;;;;5.60;4.17;;;6.20;99.90;;;;;;4973661;28;20871;-67
2024/02/26 02:18:41;;;;;;;7.37;4.90;;;6.10;99.90;;;;;;4973496;28;20451;-67
2024/02/26 02:21:09;;;;;;;6.87;4.60;;;6.10;99.90;;;;;;4973956;28;21316;-65
2024/02/26 02:23:36;;;;;;;4.47;4.07;;;6.10;99.90;;;;;;4973619;28;20447;-65
2024/02/26 02:26:03;;;;;;;5.70;3.97;;;6.10;99.90;;;;;;4972957;28;20992;-65
2024/02/26 02:28:30;;;;;;;5.57;4.30;;;6.10;99.90;;;;;;4972782;28;20877;-66
2024/02/26 02:30:57;;;;;;;11.83;5.10;;;6.00;99.90;;;;;;4972951;28;20502;-66
2024/02/26 02:33:26;;;;;;;6.37;5.23;;;6.00;99.90;;;;;;4973111;28;20481;-65
2024/02/26 02:35:55;;;;;;;7.73;4.20;;;5.90;99.90;;;;;;4973340;28;20456;-66
2024/02/26 02:38:25;;;;;;;5.90;4.07;;;5.90;99.90;;;;;;4973178;28;20452;-66
2024/02/26 02:40:52;;;;;;;6.50;4.90;;;6.00;99.90;;;;;;4972744;28;20474;-65
2024/02/26 02:43:19;;;;;;;5.17;3.90;;;5.80;99.90;;;;;;4973258;28;20462;-66
2024/02/26 02:45:46;;;;;;;9.03;4.60;;;5.70;99.90;;;;;;4972792;28;20577;-66
2024/02/26 02:48:13;;;;;;;8.07;4.10;;;5.70;99.90;;;;;;4973095;28;20443;-65
2024/02/26 02:50:40;;;;;;;5.23;4.13;;;5.60;99.90;;;;;;4972738;28;20555;-65
2024/02/26 02:53:07;;;;;;;4.80;4.30;;;5.60;99.90;;;;;;4972865;28;20506;-66
2024/02/26 02:55:35;;;;;;;7.73;4.50;;;5.50;99.90;;;;;;4972911;28;20501;-66
2024/02/26 02:58:02;;;;;;;4.83;4.10;;;5.40;99.90;;;;;;4973447;28;20848;-65
2024/02/26 03:00:29;;;;;;;4.40;3.97;;;5.40;99.90;;;;;;4972955;28;20506;-65
2024/02/26 03:02:56;;;;;;;4.10;3.70;;;5.40;99.90;;;;;;4972606;28;21229;-66
2024/02/26 03:05:23;;;;;;;8.33;4.10;;;5.30;99.90;;;;;;4973701;28;20933;-66
2024/02/26 03:07:50;;;;;;;5.63;4.53;;;5.20;99.90;;;;;;4973723;28;20454;-66
2024/02/26 03:10:17;;;;;;;9.23;4.23;;;5.40;99.90;;;;;;4973004;28;20513;-66
2024/02/26 03:12:45;;;;;;;6.20;4.17;;;5.00;99.90;;;;;;4972887;28;20443;-66
2024/02/26 03:15:12;;;;;;;8.50;4.10;;;5.10;99.90;;;;;;4972873;28;20624;-67
2024/02/26 03:17:39;;;;;;;5.40;3.83;;;5.00;99.90;;;;;;4972807;28;21014;-66
2024/02/26 03:20:09;;;;;;;4.63;4.13;;;5.00;99.90;;;;;;4972292;28;20514;-66
2024/02/26 03:22:36;;;;;;;8.20;5.00;;;5.00;99.90;;;;;;4972823;28;20493;-66
2024/02/26 03:25:03;;;;;;;5.97;4.13;;;5.00;99.90;;;;;;4972482;28;20494;-66
2024/02/26 03:27:30;;;;;;;6.50;4.93;;;5.00;99.90;;;;;;4973031;28;20446;-67
2024/02/26 03:29:58;;;;;;;5.87;4.50;;;5.20;99.90;;;;;;4972474;28;20467;-66
2024/02/26 03:32:25;;;;;;;5.70;3.70;;;5.00;99.90;;;;;;4972424;28;20458;-67
2024/02/26 03:34:54;;;;;;;8.40;5.23;;;5.00;99.90;;;;;;4972860;28;20476;-67
2024/02/26 03:37:21;;;;;;;5.23;4.03;;;5.00;99.90;;;;;;4973010;28;20501;-67
2024/02/26 03:39:47;;;;;;;5.97;4.53;;;5.00;99.90;;;;;;4972440;28;20494;-66
2024/02/26 03:42:16;;;;;;;5.97;4.20;;;5.00;99.90;;;;;;4976064;28;20525;-66
2024/02/26 03:44:43;;;;;;;7.57;5.60;;;4.90;99.90;;;;;;4976780;28;20490;-66
2024/02/26 03:47:11;;;;;;;7.43;4.83;;;4.90;99.90;;;;;;4978649;28;20443;-66
2024/02/26 03:49:38;;;;;;;4.73;3.90;;;4.90;99.90;;;;;;4977920;28;20506;-66
2024/02/26 03:52:05;;;;;;;4.90;4.17;;;4.70;99.90;;;;;;4978105;28;20466;-66
2024/02/26 03:54:32;;;;;;;6.97;4.27;;;4.90;99.90;;;;;;4979274;28;20458;-67
2024/02/26 03:56:59;;;;;;;5.87;4.30;;;4.90;99.90;;;;;;4977969;28;20620;-65
2024/02/26 03:59:26;;;;;;;5.47;4.00;;;4.90;99.90;;;;;;4972359;28;20582;-66
2024/02/26 04:01:53;;;;;;;8.27;4.97;;;4.90;99.90;;;;;;4976363;28;20455;-67
2024/02/26 04:04:21;;;;;;;6.87;5.13;;;4.90;99.90;;;;;;4976391;28;20566;-67
2024/02/26 04:06:48;;;;;;;6.33;4.70;;;5.00;99.90;;;;;;4976154;28;20531;-67
2024/02/26 04:09:15;;;;;;;8.90;4.80;;;5.00;99.90;;;;;;4975555;28;21011;-66
2024/02/26 04:11:43;;;;;;;6.53;4.47;;;4.90;99.90;;;;;;4976827;28;20521;-67
2024/02/26 04:14:11;;;;;;;6.63;4.80;;;5.00;99.90;;;;;;4977136;28;20479;-67
2024/02/26 04:16:38;;;;;;;7.97;5.53;;;5.00;99.90;;;;;;4976149;28;20463;-66
2024/02/26 04:19:06;;;;;;;5.63;4.30;;;4.90;99.90;;;;;;4975312;28;20455;-66
2024/02/26 04:21:35;;;;;;;8.70;4.43;;;5.00;99.90;;;;;;4975795;28;20466;-66
2024/02/26 04:24:01;;;;;;;6.87;5.10;;;5.00;99.90;;;;;;4975156;28;20488;-66
2024/02/26 04:26:28;;;;;;;9.97;5.70;;;5.00;99.90;;;;;;4975839;28;20506;-67
2024/02/26 04:28:56;;;;;;;7.57;6.00;;;4.90;99.90;;;;;;4977192;28;20547;-66
2024/02/26 04:31:22;;;;;;;9.20;5.77;;;4.80;99.90;;;;;;4976713;28;20468;-66
2024/02/26 04:33:49;;;;;;;10.70;5.50;;;5.00;99.90;;;;;;4976782;28;20553;-66
2024/02/26 04:36:19;;;;;;;7.87;4.90;;;5.20;99.90;;;;;;4976603;28;20531;-66
2024/02/26 04:38:47;;;;;;;9.70;5.60;;;5.10;99.90;;;;;;4976944;28;20564;-66
2024/02/26 04:41:14;;;;;;;8.40;5.20;;;5.00;99.90;;;;;;4977122;28;20522;-66
2024/02/26 04:43:42;;;;;;;10.57;5.87;;;5.00;99.90;;;;;;4976886;28;20558;-66
2024/02/26 04:46:09;;;;;;;8.00;5.30;;;5.00;99.90;;;;;;4978209;28;20486;-66
2024/02/26 04:48:38;;;;;;;9.40;5.47;;;5.00;99.90;;;;;;4977801;28;20894;-66
2024/02/26 04:51:06;;;;;;;9.07;5.40;;;5.10;99.90;;;;;;4975055;28;20473;-66
2024/02/26 04:53:33;;;;;;;10.07;6.10;;;5.10;99.90;;;;;;4975245;28;20451;-66
2024/02/26 04:56:01;;;;;;;7.30;5.23;;;5.10;99.90;;;;;;4974893;28;20475;-66
2024/02/26 04:58:28;;;;;;;7.97;6.00;;;4.90;99.90;;;;;;4974646;28;20531;-65
2024/02/26 05:00:55;;;;;;;7.20;5.60;;;5.10;99.90;;;;;;4974401;28;20472;-67
2024/02/26 05:03:22;;;;;;;15.73;5.73;;;5.10;99.90;;;;;;4974756;28;20815;-66
2024/02/26 05:05:49;;;;;;;10.87;7.13;;;4.90;99.90;;;;;;4974497;28;20577;-67
2024/02/26 05:08:16;;;;;;;11.33;6.23;;;5.10;99.90;;;;;;4974529;28;20534;-67
2024/02/26 05:10:43;;;;;;;9.53;5.57;;;5.10;99.90;;;;;;4973868;28;20497;-67
2024/02/26 05:13:11;;;;;;;8.00;5.57;;;5.10;99.90;;;;;;4974353;28;21021;-65
2024/02/26 05:15:38;;;;;;;10.47;6.70;;;5.10;99.90;;;;;;4974298;28;20445;-66
2024/02/26 05:18:05;;;;;;;12.30;7.70;;;5.00;99.90;;;;;;4974118;28;21008;-66
2024/02/26 05:20:35;;;;;;;8.10;5.93;;;5.20;99.90;;;;;;4974117;28;20540;-65
2024/02/26 05:23:03;;;;;;;13.17;6.17;;;5.10;99.90;;;;;;4973949;28;20465;-66
2024/02/26 05:25:30;;;;;;;8.27;5.40;;;5.30;99.90;;;;;;4973969;28;20481;-66
2024/02/26 05:27:57;;;;;;;11.97;6.10;;;5.20;99.90;;;;;;4974540;28;20536;-66
2024/02/26 05:30:26;;;;;;;8.97;6.10;;;5.20;99.90;;;;;;4973276;28;20516;-67
2024/02/26 05:32:53;;;;;;;12.10;6.90;;;5.10;99.90;;;;;;4974002;28;20538;-66
2024/02/26 05:35:20;;;;;;;8.70;6.80;;;5.10;99.90;;;;;;4973386;28;20450;-65
2024/02/26 05:37:47;;;;;;;9.73;6.73;;;5.10;99.90;;;;;;4973121;28;20456;-66
2024/02/26 05:40:15;;;;;;;12.30;7.10;;;5.10;99.90;;;;;;4972495;28;20891;-66
2024/02/26 05:42:43;;;;;;;14.03;6.63;;;5.10;99.90;;;;;;4973196;28;20541;-66
2024/02/26 05:45:10;;;;;;;10.63;7.10;;;5.10;99.90;;;;;;4954098;28;20833;-67
2024/02/26 05:47:42;;;;;;;8.80;6.67;;;5.10;99.90;;;;;;4954283;28;20885;-66
2024/02/26 05:50:10;;;;;;;12.20;6.77;;;5.10;99.90;;;;;;4965061;28;20521;-67
2024/02/26 05:52:38;;;;;;;17.67;8.10;;;5.10;99.90;;;;;;4973274;28;20466;-66
2024/02/26 05:55:06;;;;;;;11.30;7.23;;;5.20;99.90;;;;;;4973623;28;20838;-65
2024/02/26 05:57:33;;;;;;;13.57;7.77;;;5.20;99.90;;;;;;4973265;28;20928;-66
2024/02/26 06:00:03;;;;;;;10.00;7.53;;;5.10;99.90;;;;;;4972948;28;20506;-66
2024/02/26 06:02:30;;;;;;;16.70;7.93;;;5.20;99.90;;;;;;4972584;28;20450;-65
2024/02/26 06:04:58;;;;;;;9.70;6.53;;;5.10;99.90;;;;;;4973502;28;20482;-66
2024/02/26 06:07:25;;;;;;;10.20;7.00;;;5.20;99.90;;;;;;4973807;28;20561;-68
2024/02/26 06:09:52;;;;;;;12.40;7.37;;;5.20;99.90;;;;;;4972984;28;21100;-67
2024/02/26 06:12:19;;;;;;;17.67;9.30;;;5.20;99.90;;;;;;4973387;28;21111;-67
2024/02/26 06:14:46;;;;;;;8.83;7.60;;;5.20;99.90;;;;;;4973239;28;20534;-66
2024/02/26 06:17:13;;;;;;;12.13;7.53;;;5.20;99.90;;;;;;4973164;28;20454;-67
2024/02/26 06:19:40;;;;;;;11.37;5.80;;;5.20;99.90;;;;;;4972686;28;20967;-66
2024/02/26 06:22:09;;;;;;;13.33;7.07;;;5.30;99.90;;;;;;4973119;28;20822;-66
2024/02/26 06:24:36;;;;;;;13.93;7.93;;;5.20;99.90;;;;;;4972810;28;20459;-66
2024/02/26 06:27:03;;;;;;;15.20;8.90;;;5.30;99.90;;;;;;4972930;28;20581;-66
2024/02/26 06:29:30;;;;;;;13.03;6.73;;;5.40;99.90;;;;;;4972771;28;20499;-66
2024/02/26 06:31:56;;;;;;;17.30;9.50;;;5.40;99.90;;;;;;4972738;28;20556;-66
2024/02/26 06:34:23;;;;;;;8.60;7.77;;;5.50;99.90;;;;;;4973069;28;20482;-65
2024/02/26 06:36:50;;;;;;;14.80;9.60;;;5.50;99.90;;;;;;4972758;28;20470;-65
2024/02/26 06:39:19;;;;;;;10.60;7.97;;;5.50;99.90;;;;;;4972762;28;20471;-66
2024/02/26 06:41:46;;;;;;;14.40;8.40;;;5.50;99.90;;;;;;4971830;28;20501;-68
2024/02/26 06:44:14;;;;;;;12.30;7.70;;;5.60;99.90;;;;;;4972620;28;20918;-66
2024/02/26 06:46:41;;;;;;;11.87;8.37;;;5.60;99.90;;;;;;4972697;28;20486;-67
2024/02/26 06:49:09;;;;;;;13.50;8.37;;;5.60;99.90;;;;;;4973001;28;20451;-67
2024/02/26 06:51:36;;;;;;;14.83;8.60;;;5.70;99.90;;;;;;4973567;28;20450;-67
2024/02/26 06:54:03;;;;;;;14.17;8.90;;;5.70;99.90;;;;;;4973641;28;20447;-67
2024/02/26 06:56:31;;;;;;;11.80;8.87;;;5.80;99.90;;;;;;4972870;28;21011;-66
2024/02/26 06:58:58;;;;;;;15.17;8.53;;;5.80;99.90;;;;;;4972493;28;20538;-66
2024/02/26 07:01:25;;;;;;;16.00;9.43;;;5.80;99.90;;;;;;4972471;28;20991;-66
2024/02/26 07:03:52;;;;;;;15.77;8.10;;;5.80;99.90;;;;;;4972473;28;20988;-66
2024/02/26 07:06:19;;;;;;;11.37;8.57;;;5.80;99.90;;;;;;4973175;28;20479;-65
2024/02/26 07:08:46;;;;;;;16.80;10.00;;;5.80;99.90;;;;;;4972674;28;20450;-67
2024/02/26 07:11:13;;;;;;;17.70;9.57;;;5.80;99.90;;;;;;4972402;28;20507;-65
2024/02/26 07:13:41;;;;;;;14.03;9.37;;;5.70;99.90;;;;;;4973525;28;20963;-67
2024/02/26 07:16:10;;;;;;;16.03;8.87;;;5.60;99.90;;;;;;4975994;28;20474;-66
2024/02/26 07:18:37;;;;;;;15.10;9.50;;;5.60;99.90;;;;;;4973756;28;20465;-67
2024/02/26 07:21:05;;;;;;;17.40;10.23;;;5.80;99.90;;;;;;4975109;28;20459;-66
2024/02/26 07:23:31;;;;;;;19.43;8.80;;;5.80;99.90;;;;;;4975943;28;20446;-66
2024/02/26 07:25:58;;;;;;;14.07;9.77;;;5.80;99.90;;;;;;4975748;28;20502;-67
2024/02/26 07:28:25;;;;;;;22.43;9.80;;;5.80;99.90;;;;;;4974900;28;20447;-67
2024/02/26 07:30:54;;;;;;;15.07;10.10;;;5.80;99.90;;;;;;4975213;28;20747;-65
2024/02/26 07:33:20;;;;;;;20.60;11.17;;;6.30;99.90;;;;;;4956780;29;20500;-67
2024/02/26 07:35:47;;;;;;;10.93;7.80;;;5.90;99.90;;;;;;4960265;28;20440;-66
2024/02/26 07:38:15;;;;;;;11.93;8.70;;;6.00;99.90;;;;;;4975604;28;20951;-66
2024/02/26 07:40:42;;;;;;;13.03;8.43;;;6.10;99.90;;;;;;4974919;28;21032;-59
2024/02/26 07:43:09;;;;;;;14.50;9.87;;;6.10;99.90;;;;;;4972301;28;20548;-58
2024/02/26 07:45:36;;;;;;;17.43;10.20;;;6.20;99.90;;;;;;4975656;28;20494;-58
2024/02/26 07:48:07;;;;;;;13.27;9.10;;;6.20;99.90;;;;;;4964130;28;21016;-56
2024/02/26 07:50:34;;;;;;;14.77;9.20;;;6.30;99.90;;;;;;4955999;29;20555;-59
2024/02/26 07:53:01;;;;;;;13.30;10.37;;;6.30;99.90;;;;;;4968099;28;20529;-58
2024/02/26 07:55:28;;;;;;;13.90;9.30;;;6.40;99.90;;;;;;4971342;28;20578;-59
2024/02/26 07:57:55;;;;;;;13.77;9.40;;;6.40;99.90;;;;;;4975572;28;21096;-60
2024/02/26 08:00:22;;;;;;;16.00;9.57;;;6.50;99.90;;;;;;4975300;28;20889;-56
2024/02/26 08:02:49;;;;;;;14.63;9.60;;;6.60;99.90;;;;;;4975277;28;20451;-58
2024/02/26 08:05:17;;;;;;;14.40;9.97;;;6.70;99.90;;;;;;4975452;28;20596;-58
2024/02/26 08:07:44;;;;;;;16.73;9.70;;;6.80;99.90;;;;;;4973711;28;20533;-53
2024/02/26 08:10:11;;;;;;;15.30;10.60;;;6.90;99.90;;;;;;4974724;28;20463;-55
2024/02/26 08:12:39;;;;;;;25.00;10.17;;;7.00;99.90;;;;;;4975227;28;20538;-56
2024/02/26 08:15:07;;;;;;;14.47;9.23;;;7.10;99.90;;;;;;4975530;28;20449;-56
2024/02/26 08:17:34;;;;;;;14.73;10.37;;;7.20;99.90;;;;;;4974696;28;20449;-53
2024/02/26 08:20:01;;;;;;;13.03;9.17;;;7.30;99.90;;;;;;4974763;28;20467;-58
2024/02/26 08:22:29;;;;;;;17.60;10.30;;;7.40;99.90;;;;;;4974370;28;20547;-58
2024/02/26 08:24:56;;;;;;;24.50;8.80;;;7.50;99.90;;;;;;4973539;28;20533;-60
2024/02/26 08:27:23;;;;;;;16.67;10.60;;;7.60;99.90;;;;;;4967648;28;20490;-60
2024/02/26 08:29:50;;;;;;;15.63;9.73;;;7.70;99.90;;;;;;5008450;23;20693;-60
2024/02/26 08:32:17;;;;;;;16.20;10.00;;;7.70;99.90;;;;;;4994631;28;20525;-59
2024/02/26 08:34:45;;;;;;;16.43;10.87;;;7.80;99.90;;;;;;4996121;28;20893;-56
2024/02/26 08:37:12;;;;;;;18.33;11.13;;;7.90;99.90;;;;;;4994350;28;20438;-58
2024/02/26 08:39:40;;;;;;;15.97;10.33;;;8.00;99.90;;;;;;4994060;28;20525;-56
2024/02/26 08:42:07;;;;;;;15.30;10.63;;;8.20;99.90;;;;;;4993995;28;20795;-57
2024/02/26 08:44:34;;;;;;;19.67;10.80;;;8.30;99.90;;;;;;4993050;28;20466;-55
2024/02/26 08:47:02;;;;;;;19.90;11.93;;;8.30;99.90;;;;;;4993573;28;20525;-58
2024/02/26 08:49:29;;;;;;;18.33;11.40;;;8.50;99.90;;;;;;4993586;28;20509;-56
2024/02/26 08:51:56;;;;;;;17.13;10.33;;;8.60;99.90;;;;;;4994046;28;20834;-54
2024/02/26 08:54:24;;;;;;;15.90;10.90;;;8.70;99.90;;;;;;4993627;28;20462;-55
2024/02/26 08:56:52;;;;;;;22.00;11.27;;;8.80;99.90;;;;;;4992657;28;20481;-57
2024/02/26 08:59:22;;;;;;;20.00;11.40;;;8.90;99.90;;;;;;4993318;28;20473;-57
2024/02/26 09:01:49;;;;;;;17.20;11.37;;;9.10;99.90;;;;;;4993215;28;20443;-65
2024/02/26 09:04:16;;;;;;;16.23;10.10;;;9.20;99.90;;;;;;4993450;28;20529;-63
2024/02/26 09:06:43;;;;;;;23.53;12.10;;;9.30;99.90;;;;;;4994133;28;20482;-65
2024/02/26 09:09:10;;;;;;;19.57;10.80;;;9.40;99.90;;;;;;4994253;28;20474;-64
2024/02/26 09:11:37;;;;;;;19.50;11.27;;;9.60;99.90;;;;;;4993835;28;20827;-65
2024/02/26 09:14:06;;;;;;;13.93;10.50;;;9.70;99.90;;;;;;4993423;28;20438;-64
2024/02/26 09:16:33;;;;;;;19.30;11.33;;;9.80;99.90;;;;;;4993132;28;20501;-65
2024/02/26 09:18:59;;;;;;;18.23;11.70;;;9.90;99.90;;;;;;4993224;28;20545;-66
2024/02/26 09:21:29;;;;;;;17.70;12.00;;;10.00;99.90;;;;;;4993301;28;20477;-66
2024/02/26 09:23:56;;;;;;;20.97;12.97;;;10.00;99.90;;;;;;4993433;28;20868;-65
2024/02/26 09:26:23;;;;;;;21.10;10.30;;;10.00;99.90;;;;;;4993027;28;20814;-65
2024/02/26 09:28:50;;;;;;;16.13;10.30;;;10.10;99.90;;;;;;4992923;28;20442;-65
2024/02/26 09:31:19;;;;;;;17.30;11.83;;;10.10;99.90;;;;;;4992900;28;20459;-66
2024/02/26 09:33:46;;;;;;;14.90;10.23;;;10.20;99.90;;;;;;4993320;28;20447;-66
2024/02/26 09:36:13;;;;;;;18.27;10.00;;;10.20;99.90;;;;;;4992974;28;20483;-63
2024/02/26 09:38:41;;;;;;;14.17;9.70;;;10.30;99.90;;;;;;4992596;28;20501;-64
2024/02/26 09:41:13;;;;;;;14.97;10.07;;;10.50;99.90;;;;;;4992413;28;20478;-64
2024/02/26 09:43:44;;;;;;;19.00;10.40;;;10.60;99.90;;;;;;4992828;28;20538;-64
2024/02/26 09:46:12;;;;;;;13.23;8.97;;;10.80;99.90;;;;;;4992180;28;20569;-63
2024/02/26 09:48:41;;;;;;;13.27;10.13;;;11.00;99.90;;;;;;4993705;28;20500;-64
2024/02/26 09:51:10;;;;;;;20.40;11.40;;;11.40;99.90;;;;;;4992619;28;20521;-65
2024/02/26 09:53:39;;;;;;;15.50;9.47;;;11.70;99.90;;;;;;4991229;28;20442;-64
2024/02/26 09:56:08;;;;;;;10.37;8.40;;;12.10;99.90;;;;;;4991133;28;20446;-64
2024/02/26 09:58:36;;;;;;;12.87;9.43;;;12.50;99.90;;;;;;4992864;28;20943;-65
2024/02/26 10:01:06;;;;;;;13.57;9.27;;;13.00;99.90;;;;;;4992101;28;20528;-64
2024/02/26 10:03:41;;;;;;;13.80;9.10;;;13.80;99.90;;;;;;4992753;28;20545;-66
2024/02/26 10:06:08;;;;;;;12.93;9.37;;;14.70;99.90;;;;;;4992473;28;20831;-64
2024/02/26 10:08:37;;;;;;;11.70;8.83;;;15.60;99.90;;;;;;4992490;28;20466;-64
2024/02/26 10:11:06;;;;;;;13.23;9.93;;;16.30;99.90;;;;;;4992179;28;21055;-65
2024/02/26 10:13:33;;;;;;;11.67;9.17;;;16.80;99.90;;;;;;4992589;28;20483;-65
2024/02/26 10:16:03;;;;;;;18.87;10.77;;;17.20;99.90;;;;;;4992608;28;20458;-66
2024/02/26 10:18:48;;;;;;;12.60;9.50;;;17.40;99.80;;;;;;4992667;28;20446;-65
2024/02/26 10:21:17;;;;;;;13.60;8.30;;;17.60;97.80;;;;;;4992544;28;20465;-65
2024/02/26 10:23:44;;;;;;;14.50;8.43;;;17.70;96.70;;;;;;4992454;28;20815;-65
2024/02/26 10:26:13;;;;;;;15.43;9.37;;;17.80;95.50;;;;;;4992590;28;20974;-65
2024/02/26 10:28:40;;;;;;;10.10;8.37;;;17.90;94.40;;;;;;4992623;28;20446;-66
2024/02/26 10:31:08;;;;;;;11.80;8.07;;;17.90;93.60;;;;;;4991653;28;20529;-65
2024/02/26 10:33:36;;;;;;;13.70;8.50;;;17.90;93.50;;;;;;4992187;28;20446;-65
2024/02/26 10:36:06;;;;;;;11.00;9.17;;;17.90;93.00;;;;;;4992279;28;20951;-65
2024/02/26 10:38:34;;;;;;;10.23;8.40;;;18.00;92.60;;;;;;4992458;28;20455;-66
2024/02/26 10:41:02;;;;;;;10.33;7.77;;;18.30;92.00;;;;;;4992745;28;20470;-65
2024/02/26 10:43:29;;;;;;;12.27;6.97;;;18.50;90.20;;;;;;4997598;28;20501;-64
2024/02/26 10:45:56;;;;;;;8.87;7.03;;;18.70;88.60;;;;;;4991100;28;20970;-64
2024/02/26 10:48:24;;;;;;;10.13;7.23;;;18.60;89.30;;;;;;4991627;28;20540;-63
2024/02/26 10:50:52;;;;;;;15.50;8.10;;;18.50;88.80;;;;;;4994909;28;20457;-64
2024/02/26 10:53:24;;;;;;;21.23;7.03;;;18.60;87.80;;;;;;4995366;28;20472;-64
2024/02/26 10:55:56;;;;;;;12.80;8.57;;;18.70;86.40;;;;;;4996147;28;20474;-65
2024/02/26 10:58:24;;;;;;;7.70;6.90;;;18.70;86.10;;;;;;4995300;28;20955;-64
2024/02/26 11:00:53;;;;;;;16.77;7.57;;;18.60;84.50;;;;;;4995999;28;20470;-65
2024/02/26 11:03:21;;;;;;;8.70;6.97;;;18.60;85.40;;;;;;4997484;28;20445;-64
2024/02/26 11:05:50;;;;;;;9.83;7.53;;;18.70;84.30;;;;;;4996149;28;20449;-65
2024/02/26 11:08:18;;;;;;;10.87;7.80;;;18.70;85.60;;;;;;4995741;28;20496;-64
2024/02/26 11:10:49;;;;;;;11.43;7.00;;;18.70;83.10;;;;;;4995741;28;20553;-65
2024/02/26 11:13:18;;;;;;;9.37;6.03;;;18.50;83.10;;;;;;4995931;28;20453;-63
2024/02/26 11:15:48;;;;;;;9.70;6.97;;;18.40;83.20;;;;;;4995841;28;20508;-65
2024/02/26 11:18:17;;;;;;;9.57;6.17;;;18.20;83.40;;;;;;4996456;28;20450;-65
2024/02/26 11:20:44;;;;;;;9.40;6.17;;;17.90;84.20;;;;;;4995595;28;20470;-65
2024/02/26 11:23:11;;;;;;;9.63;6.60;;;17.80;85.60;;;;;;4995812;28;20882;-65
2024/02/26 11:25:39;;;;;;;13.03;7.63;;;17.60;86.80;;;;;;4995712;28;20505;-63
2024/02/26 11:28:12;;;;;;;11.53;7.97;;;17.40;87.80;;;;;;4995741;28;20519;-64
2024/02/26 11:30:43;;;;;;;8.57;7.30;;;17.00;90.00;;;;;;4995619;28;20942;-64
2024/02/26 11:33:12;;;;;;;13.30;7.10;;;16.70;90.60;;;;;;4996361;28;20470;-66
2024/02/26 11:35:39;;;;;;;8.07;6.47;;;16.30;91.20;;;;;;4996696;28;20450;-64
2024/02/26 11:38:07;;;;;;;13.43;7.93;;;16.00;91.90;;;;;;4997058;28;20441;-64
2024/02/26 11:40:34;;;;;;;11.90;6.83;;;15.80;92.60;;;;;;4995693;28;20466;-63
2024/02/26 11:43:01;;;;;;;13.83;7.23;;;15.50;93.20;;;;;;4996690;28;20446;-64
2024/02/26 11:45:59;;;;;;;10.33;7.57;;;15.30;94.00;;;;;;4996758;28;20473;-64
2024/02/26 11:48:27;;;;;;;8.30;6.07;;;15.20;95.00;;;;;;4983819;28;20486;-64
2024/02/26 11:50:54;;;;;;;9.37;7.50;;;15.00;95.20;;;;;;4995033;28;20509;-64
2024/02/26 11:53:23;;;;;;;9.70;7.00;;;15.00;95.80;;;;;;4993289;28;20859;-64
2024/02/26 11:56:14;;;;;;;14.03;7.70;;;14.90;95.90;;;;;;4994917;28;20447;-64
2024/02/26 11:58:41;;;;;;;8.97;7.40;;;14.80;96.60;;;;;;4993932;28;21021;-62
2024/02/26 12:01:53;;;;;;;11.17;7.40;;;14.70;97.20;;;;;;4993866;28;20564;-64
2024/02/26 12:04:25;;;;;;;14.40;6.93;;;14.20;96.90;;;;;;4994924;28;20553;-65
2024/02/26 12:06:54;;;;;;;9.80;6.63;;;14.50;97.70;;;;;;4994635;28;20483;-64
2024/02/26 12:09:38;;;;;;;11.33;7.23;;;14.40;97.90;;;;;;4991366;28;20470;-64
2024/02/26 12:12:07;;;;;;;14.73;6.90;;;14.40;98.00;;;;;;4992688;28;20442;-63
2024/02/26 12:14:35;;;;;;;8.83;6.03;;;14.40;97.70;;;;;;4993501;28;20450;-64
2024/02/26 12:17:06;;;;;;;12.27;7.10;;;14.30;97.00;;;;;;4994014;28;20858;-64
2024/02/26 12:19:36;;;;;;;18.73;6.57;;;14.30;97.10;;;;;;5000691;23;20482;-62
2024/02/26 12:22:03;;;;;;;8.77;6.40;;;14.20;97.20;;;;;;4994064;28;20497;-64
2024/02/26 12:24:31;;;;;;;8.53;6.20;;;14.20;97.10;;;;;;4995047;28;20474;-65
2024/02/26 12:26:58;;;;;;;9.83;6.50;;;14.10;97.40;;;;;;4994043;28;20485;-64
2024/02/26 12:29:25;;;;;;;11.30;6.60;;;14.20;97.10;;;;;;4993912;28;20473;-65
2024/02/26 12:31:52;;;;;;;8.70;5.77;;;14.10;97.00;;;;;;4994095;28;20963;-65
2024/02/26 12:34:20;;;;;;;7.50;5.33;;;14.10;96.90;;;;;;4993879;28;20439;-64
2024/02/26 12:36:49;;;;;;;11.13;7.37;;;14.20;97.00;;;;;;4994098;28;20814;-64
2024/02/26 12:39:16;;;;;;;13.53;5.93;;;14.20;96.40;;;;;;4993692;28;20558;-64
2024/02/26 12:41:49;;;;;;;7.67;5.80;;;14.20;96.30;;;;;;4994448;28;20450;-64
2024/02/26 12:44:17;;;;;;;9.10;4.77;;;14.30;96.30;;;;;;4994141;28;20504;-64
2024/02/26 12:46:44;;;;;;;8.37;6.33;;;14.30;95.70;;;;;;4993899;28;20461;-63
2024/02/26 12:49:16;;;;;;;7.97;4.93;;;14.30;95.10;;;;;;4992370;28;20478;-64
2024/02/26 12:51:44;;;;;;;6.60;5.13;;;14.40;95.10;;;;;;4992348;28;20503;-67